createdAt,value
2019-05-25T00:01:28.629Z,3.75
2019-05-25T00:03:57.043Z,3.37
2019-05-25T00:06:29.484Z,3.27
2019-05-25T00:09:01.928Z,3.40
2019-05-25T00:14:00.809Z,3.02
2019-05-25T00:16:29.495Z,3.67
2019-05-25T00:18:58.919Z,3.65
2019-05-25T00:21:27.392Z,3.47
2019-05-25T00:24:10.881Z,3.37
2019-05-25T00:26:25.979Z,3.60
2019-05-25T00:28:54.990Z,3.20
2019-05-25T00:31:23.408Z,3.95
2019-05-25T00:33:51.851Z,3.47
2019-05-25T00:36:24.273Z,3.72
2019-05-25T00:41:23.974Z,3.25
2019-05-25T00:43:52.386Z,3.87
2019-05-25T00:46:22.349Z,3.52
2019-05-25T00:48:50.757Z,3.87
2019-05-25T00:51:24.021Z,4.25
2019-05-25T00:53:52.456Z,3.17
2019-05-25T00:56:20.861Z,3.65
2019-05-25T00:58:49.305Z,4.10
2019-05-25T01:01:19.788Z,3.85
2019-05-25T01:03:52.055Z,3.10
2019-05-25T01:06:20.485Z,3.55
2019-05-25T01:08:48.911Z,3.58
2019-05-25T01:11:17.315Z,3.67
2019-05-25T01:13:46.704Z,3.77
2019-05-25T01:16:16.121Z,3.20
2019-05-25T01:18:48.362Z,3.33
2019-05-25T01:21:16.787Z,3.12
2019-05-25T01:23:45.220Z,3.00
2019-05-25T01:26:17.583Z,3.35
2019-05-25T01:28:46.107Z,3.65
2019-05-25T01:31:14.690Z,3.42
2019-05-25T01:33:43.111Z,3.30
2019-05-25T01:36:11.626Z,4.35
2019-05-25T01:38:45.575Z,3.80
2019-05-25T01:41:12.683Z,3.65
2019-05-25T01:43:47.695Z,3.95
2019-05-25T01:46:16.142Z,4.28
2019-05-25T01:48:45.611Z,3.90
2019-05-25T01:51:16.570Z,3.60
2019-05-25T01:53:48.461Z,3.40
2019-05-25T01:56:20.588Z,4.08
2019-05-25T01:58:52.921Z,3.67
2019-05-25T02:01:21.347Z,3.85
2019-05-25T02:03:51.280Z,3.70
2019-05-25T02:06:19.697Z,4.30
2019-05-25T02:08:48.099Z,3.77
2019-05-25T02:11:16.512Z,4.42
2019-05-25T02:13:44.923Z,4.10
2019-05-25T02:16:15.857Z,4.03
2019-05-25T02:18:47.746Z,4.00
2019-05-25T02:21:16.177Z,4.72
2019-05-25T02:23:46.608Z,3.77
2019-05-25T02:26:15.046Z,4.33
2019-05-25T02:28:45.927Z,4.70
2019-05-25T02:31:17.027Z,3.50
2019-05-25T02:33:49.549Z,4.30
2019-05-25T02:38:48.323Z,4.53
2019-05-25T02:41:19.167Z,4.65
2019-05-25T02:43:51.235Z,4.37
2019-05-25T02:46:19.631Z,4.42
2019-05-25T02:48:48.068Z,4.33
2019-05-25T02:51:16.487Z,4.58
2019-05-25T02:53:46.002Z,4.23
2019-05-25T02:56:15.857Z,4.97
2019-05-25T02:58:50.937Z,4.27
2019-05-25T03:01:22.062Z,4.97
2019-05-25T03:03:54.707Z,5.53
2019-05-25T03:06:23.523Z,4.42
2019-05-25T03:08:53.487Z,4.60
2019-05-25T03:11:22.176Z,5.90
2019-05-25T03:13:55.829Z,4.30
2019-05-25T03:16:24.232Z,5.20
2019-05-25T03:18:52.650Z,4.53
2019-05-25T03:21:26.676Z,5.00
2019-05-25T03:23:55.281Z,4.90
2019-05-25T03:26:28.512Z,4.42
2019-05-25T03:29:01.095Z,4.40
2019-05-25T03:31:32.243Z,4.72
2019-05-25T03:34:00.666Z,4.92
2019-05-25T03:36:29.085Z,4.87
2019-05-25T03:38:59.406Z,4.47
2019-05-25T03:41:27.826Z,4.75
2019-05-25T03:43:59.108Z,4.50
2019-05-25T03:46:28.496Z,5.33
2019-05-25T03:48:57.302Z,5.10
2019-05-25T03:51:28.174Z,4.60
2019-05-25T03:53:56.629Z,5.53
2019-05-25T03:56:25.043Z,5.10
2019-05-25T03:58:53.499Z,5.40
2019-05-25T04:01:21.911Z,5.47
2019-05-25T04:03:53.670Z,5.10
2019-05-25T04:06:24.419Z,6.00
2019-05-25T04:08:52.269Z,5.42
2019-05-25T04:11:20.742Z,5.53
2019-05-25T04:13:49.156Z,6.00
2019-05-25T04:16:21.200Z,4.28
2019-05-25T04:18:49.609Z,5.10
2019-05-25T04:21:18.968Z,6.28
2019-05-25T04:23:51.434Z,5.20
2019-05-25T04:28:55.538Z,4.45
2019-05-25T04:31:27.202Z,5.35
2019-05-25T04:34:03.109Z,5.70
2019-05-25T04:36:32.520Z,5.20
2019-05-25T04:39:00.959Z,5.55
2019-05-25T04:41:29.378Z,5.42
2019-05-25T04:43:57.793Z,5.30
2019-05-25T04:46:26.295Z,5.30
2019-05-25T04:49:04.169Z,5.13
2019-05-25T04:51:32.609Z,4.85
2019-05-25T04:54:04.669Z,4.70
2019-05-25T04:56:39.551Z,4.70
2019-05-25T04:59:12.691Z,5.75
2019-05-25T05:01:41.110Z,5.05
2019-05-25T05:04:09.538Z,4.90
2019-05-25T05:06:37.960Z,4.17
2019-05-25T05:09:10.223Z,5.08
2019-05-25T05:11:41.111Z,4.75
2019-05-25T05:14:09.517Z,4.50
2019-05-25T05:16:37.974Z,4.37
2019-05-25T05:19:06.385Z,4.70
2019-05-25T05:21:34.817Z,4.67
2019-05-25T05:24:03.235Z,3.98
2019-05-25T05:26:31.656Z,4.05
2019-05-25T05:29:00.142Z,3.90
2019-05-25T05:31:28.697Z,4.10
2019-05-25T05:33:57.105Z,3.63
2019-05-25T05:36:27.342Z,3.60
2019-05-25T05:38:58.595Z,3.90
2019-05-25T05:41:31.132Z,3.75
2019-05-25T05:44:04.740Z,3.25
2019-05-25T05:46:34.799Z,3.95
2019-05-25T05:49:03.956Z,4.03
2019-05-25T05:51:35.954Z,3.17
2019-05-25T05:54:05.520Z,3.60
2019-05-25T05:56:33.927Z,3.50
2019-05-25T05:59:02.327Z,3.27
2019-05-25T06:01:30.743Z,3.62
2019-05-25T06:03:59.171Z,3.87
2019-05-25T06:06:27.587Z,3.15
2019-05-25T06:08:56.003Z,3.77
2019-05-25T06:11:25.474Z,2.95
2019-05-25T06:13:55.005Z,3.97
2019-05-25T06:16:23.453Z,3.15
2019-05-25T06:18:54.344Z,3.53
2019-05-25T06:21:26.565Z,2.95
2019-05-25T06:23:54.984Z,2.83
2019-05-25T06:26:28.283Z,3.02
2019-05-25T06:29:02.803Z,2.80
2019-05-25T06:31:31.201Z,2.30
2019-05-25T06:34:06.614Z,2.57
2019-05-25T06:36:37.670Z,2.08
2019-05-25T06:39:08.029Z,2.27
2019-05-25T06:41:36.580Z,2.02
2019-05-25T06:44:05.742Z,1.47
2019-05-25T06:46:34.188Z,1.90
2019-05-25T06:49:02.594Z,1.95
2019-05-25T06:51:31.013Z,1.45
2019-05-25T06:53:59.423Z,1.98
2019-05-25T06:56:31.652Z,2.10
2019-05-25T06:59:01.126Z,1.82
2019-05-25T07:01:32.265Z,1.77
2019-05-25T07:04:00.207Z,1.90
2019-05-25T07:06:29.689Z,2.10
2019-05-25T07:09:06.212Z,2.50
2019-05-25T07:11:34.717Z,2.27
2019-05-25T07:14:03.143Z,2.35
2019-05-25T07:16:33.099Z,2.08
2019-05-25T07:19:01.470Z,2.25
2019-05-25T07:21:29.874Z,3.10
2019-05-25T07:23:58.296Z,2.23
2019-05-25T07:26:28.582Z,2.98
2019-05-25T07:28:57.010Z,2.90
2019-05-25T07:31:25.817Z,2.50
2019-05-25T07:33:55.338Z,2.90
2019-05-25T07:36:23.736Z,3.05
2019-05-25T07:38:52.205Z,2.60
2019-05-25T07:41:20.757Z,2.40
2019-05-25T07:43:50.317Z,2.50
2019-05-25T07:46:18.726Z,2.15
2019-05-25T07:48:50.462Z,2.10
2019-05-25T07:51:18.983Z,2.00
2019-05-25T07:53:53.986Z,2.13
2019-05-25T07:56:25.980Z,1.92
2019-05-25T07:58:54.402Z,1.75
2019-05-25T08:01:32.533Z,1.98
2019-05-25T08:04:00.944Z,1.90
2019-05-25T08:06:34.640Z,1.70
2019-05-25T08:09:04.252Z,2.35
2019-05-25T08:11:32.684Z,1.55
2019-05-25T08:14:01.119Z,1.72
2019-05-25T08:16:33.091Z,1.80
2019-05-25T08:19:01.492Z,1.77
2019-05-25T08:21:29.929Z,1.60
2019-05-25T08:23:58.343Z,1.80
2019-05-25T08:26:26.751Z,2.00
2019-05-25T08:29:02.053Z,1.67
2019-05-25T08:31:32.885Z,1.92
2019-05-25T08:34:15.376Z,1.40
2019-05-25T08:36:47.591Z,1.80
2019-05-25T08:39:15.991Z,1.52
2019-05-25T08:41:45.660Z,1.50
2019-05-25T08:44:18.031Z,1.52
2019-05-25T08:46:50.182Z,2.02
2019-05-25T08:49:18.595Z,3.77
2019-05-25T08:51:47.012Z,1.77
2019-05-25T08:54:15.416Z,1.40
2019-05-25T08:56:45.492Z,1.72
2019-05-25T08:59:18.255Z,1.43
2019-05-25T09:01:46.688Z,1.85
2019-05-25T09:04:17.533Z,1.98
2019-05-25T09:06:50.580Z,1.72
2019-05-25T09:09:21.133Z,1.72
2019-05-25T09:11:53.866Z,1.60
2019-05-25T09:14:24.848Z,1.70
2019-05-25T09:16:56.953Z,1.67
2019-05-25T09:19:25.435Z,1.40
2019-05-25T09:22:03.504Z,1.65
2019-05-25T09:24:35.135Z,2.30
2019-05-25T09:27:08.691Z,1.60
2019-05-25T09:29:37.099Z,1.52
2019-05-25T09:32:07.089Z,1.70
2019-05-25T09:34:35.741Z,1.45
2019-05-25T09:37:04.227Z,1.60
2019-05-25T09:39:32.639Z,1.87
2019-05-25T09:42:09.748Z,1.90
2019-05-25T09:44:38.174Z,1.40
2019-05-25T09:47:06.629Z,1.80
2019-05-25T09:49:37.919Z,2.15
2019-05-25T09:52:06.350Z,1.92
2019-05-25T09:54:39.243Z,1.80
2019-05-25T09:57:08.773Z,2.27
2019-05-25T09:59:41.055Z,1.90
2019-05-25T10:02:11.893Z,1.98
2019-05-25T10:04:40.386Z,1.80
2019-05-25T10:07:13.753Z,2.22
2019-05-25T10:09:42.161Z,1.80
2019-05-25T10:12:10.600Z,2.17
2019-05-25T10:14:40.644Z,1.57
2019-05-25T10:17:08.993Z,2.22
2019-05-25T10:19:38.481Z,2.30
2019-05-25T10:22:09.907Z,2.02
2019-05-25T10:24:38.355Z,2.33
2019-05-25T10:27:08.924Z,2.37
2019-05-25T10:29:37.880Z,1.80
2019-05-25T10:32:08.886Z,2.30
2019-05-25T10:34:37.327Z,2.17
2019-05-25T10:37:06.441Z,2.20
2019-05-25T10:39:36.826Z,2.10
2019-05-25T10:42:10.501Z,2.75
2019-05-25T10:44:38.903Z,2.37
2019-05-25T10:47:09.857Z,2.20
2019-05-25T10:49:39.333Z,1.87
2019-05-25T10:52:10.011Z,1.87
2019-05-25T10:54:41.977Z,2.10
2019-05-25T10:57:13.042Z,1.80
2019-05-25T10:59:52.530Z,2.15
2019-05-25T11:02:10.860Z,2.37
2019-05-25T11:04:39.282Z,2.37
2019-05-25T11:07:21.951Z,2.30
2019-05-25T11:09:46.886Z,2.12
2019-05-25T11:12:15.278Z,2.45
2019-05-25T11:14:43.729Z,2.35
2019-05-25T11:17:12.095Z,1.92
2019-05-25T11:19:40.591Z,3.00
2019-05-25T11:22:12.788Z,2.90
2019-05-25T11:24:46.515Z,2.30
2019-05-25T11:27:16.073Z,2.75
2019-05-25T11:29:44.462Z,2.80
2019-05-25T11:32:15.830Z,2.72
2019-05-25T11:34:46.760Z,2.70
2019-05-25T11:37:15.797Z,3.10
2019-05-25T11:39:44.322Z,2.17
2019-05-25T11:42:15.208Z,2.58
2019-05-25T11:44:43.676Z,3.15
2019-05-25T11:47:12.116Z,2.83
2019-05-25T11:49:40.510Z,2.47
2019-05-25T11:52:08.914Z,3.20
2019-05-25T11:54:37.306Z,2.25
2019-05-25T11:57:05.739Z,2.58
2019-05-25T11:59:34.194Z,2.17
2019-05-25T12:02:02.663Z,2.90
2019-05-25T12:04:31.076Z,1.70
2019-05-25T12:07:04.952Z,2.33
2019-05-25T12:09:37.188Z,2.17
2019-05-25T12:12:06.843Z,2.70
2019-05-25T12:14:35.258Z,2.87
2019-05-25T12:17:06.450Z,3.00
2019-05-25T12:19:38.653Z,3.08
2019-05-25T12:22:08.081Z,3.08
2019-05-25T12:24:36.570Z,3.52
2019-05-25T12:27:04.988Z,3.40
2019-05-25T12:29:33.458Z,2.98
2019-05-25T12:32:05.257Z,3.08
2019-05-25T12:34:33.136Z,3.77
2019-05-25T12:37:01.551Z,2.37
2019-05-25T12:39:33.841Z,2.33
2019-05-25T12:44:39.879Z,2.10
2019-05-25T12:47:08.372Z,2.10
2019-05-25T12:49:50.165Z,1.90
2019-05-25T12:52:10.284Z,1.77
2019-05-25T12:54:43.630Z,2.17
2019-05-25T12:57:12.082Z,2.40
2019-05-25T12:59:43.174Z,2.58
2019-05-25T13:02:15.188Z,2.77
2019-05-25T13:04:44.820Z,2.67
2019-05-25T13:07:13.278Z,2.42
2019-05-25T13:09:41.691Z,2.42
2019-05-25T13:12:11.182Z,2.10
2019-05-25T13:14:42.247Z,2.33
2019-05-25T13:17:10.661Z,2.12
2019-05-25T13:19:40.145Z,1.85
2019-05-25T13:22:09.715Z,2.12
2019-05-25T13:24:38.289Z,2.20
2019-05-25T13:27:06.777Z,2.20
2019-05-25T13:29:35.194Z,2.58
2019-05-25T13:32:03.787Z,2.80
2019-05-25T13:34:34.138Z,2.37
2019-05-25T13:37:02.699Z,2.08
2019-05-25T13:39:35.899Z,2.02
2019-05-25T13:42:05.448Z,2.10
2019-05-25T13:44:34.226Z,2.27
2019-05-25T13:47:05.298Z,2.15
2019-05-25T13:49:33.856Z,1.97
2019-05-25T13:52:03.283Z,2.15
2019-05-25T13:54:34.248Z,1.60
2019-05-25T13:57:02.674Z,1.57
2019-05-25T13:59:31.091Z,1.90
2019-05-25T14:01:59.523Z,1.50
2019-05-25T14:04:27.939Z,1.57
2019-05-25T14:06:56.437Z,1.65
2019-05-25T14:09:24.856Z,2.40
2019-05-25T14:11:53.300Z,1.95
2019-05-25T14:14:24.363Z,2.65
2019-05-25T14:16:54.539Z,2.08
2019-05-25T14:19:22.950Z,2.00
2019-05-25T14:21:52.358Z,1.98
2019-05-25T14:24:21.806Z,2.27
2019-05-25T14:26:54.290Z,1.95
2019-05-25T14:29:26.026Z,1.90
2019-05-25T14:31:53.873Z,1.65
2019-05-25T14:34:23.284Z,1.60
2019-05-25T14:36:53.020Z,2.30
2019-05-25T14:39:26.231Z,1.90
2019-05-25T14:41:57.165Z,2.17
2019-05-25T14:44:28.101Z,2.17
2019-05-25T14:46:57.624Z,2.37
2019-05-25T14:49:28.108Z,2.92
2019-05-25T14:51:57.590Z,2.70
2019-05-25T14:54:29.728Z,2.30
2019-05-25T14:56:58.224Z,2.17
2019-05-25T14:59:26.633Z,2.20
2019-05-25T15:02:02.383Z,2.30
2019-05-25T15:04:26.309Z,2.60
2019-05-25T15:06:54.878Z,2.58
2019-05-25T15:09:31.483Z,2.55
2019-05-25T15:12:02.006Z,3.08
2019-05-25T15:14:31.325Z,2.42
2019-05-25T15:17:01.337Z,3.12
2019-05-25T15:19:30.998Z,2.10
2019-05-25T15:22:02.525Z,1.52
2019-05-25T15:24:37.064Z,2.10
2019-05-25T15:27:07.443Z,2.17
2019-05-25T15:29:40.818Z,2.00
2019-05-25T15:32:19.937Z,2.37
2019-05-25T15:34:46.644Z,2.12
2019-05-25T15:37:15.344Z,2.05
2019-05-25T15:39:46.969Z,2.03
2019-05-25T15:42:15.005Z,1.87
2019-05-25T15:44:43.807Z,2.35
2019-05-25T15:47:13.792Z,1.75
2019-05-25T15:49:43.791Z,1.77
2019-05-25T15:52:13.633Z,2.02
2019-05-25T15:54:47.467Z,2.60
2019-05-25T15:57:16.144Z,3.58
2019-05-25T15:59:46.780Z,1.67
2019-05-25T16:02:36.267Z,6.22
2019-05-25T16:04:57.535Z,4.85
2019-05-25T16:07:25.999Z,2.30
2019-05-25T16:09:54.707Z,6.80
2019-05-25T16:12:23.276Z,4.67
2019-05-25T16:14:56.959Z,3.90
2019-05-25T16:17:26.263Z,2.10
2019-05-25T16:19:54.874Z,3.83
2019-05-25T16:22:23.617Z,2.67
2019-05-25T16:24:59.907Z,2.65
2019-05-25T16:27:30.146Z,2.12
2019-05-25T16:29:58.687Z,2.40
2019-05-25T16:32:27.180Z,2.35
2019-05-25T16:35:00.384Z,2.08
2019-05-25T16:37:37.607Z,2.30
2019-05-25T16:40:10.893Z,2.10
2019-05-25T16:42:39.605Z,2.33
2019-05-25T16:45:10.286Z,2.17
2019-05-25T16:47:44.264Z,2.30
2019-05-25T16:50:14.994Z,3.40
2019-05-25T16:52:46.682Z,2.50
2019-05-25T16:55:16.487Z,2.60
2019-05-25T16:57:49.067Z,3.17
2019-05-25T17:00:20.586Z,2.72
2019-05-25T17:02:52.838Z,2.25
2019-05-25T17:05:21.437Z,3.10
2019-05-25T17:07:52.172Z,1.95
2019-05-25T17:10:22.522Z,2.45
2019-05-25T17:12:53.606Z,1.87
2019-05-25T17:15:22.347Z,1.83
2019-05-25T17:17:51.121Z,2.65
2019-05-25T17:20:23.670Z,2.55
2019-05-25T17:25:22.628Z,2.20
2019-05-25T17:27:51.099Z,2.65
2019-05-25T17:30:39.912Z,5.65
2019-05-25T17:33:09.565Z,2.00
2019-05-25T17:35:43.214Z,2.35
2019-05-25T17:38:11.910Z,4.08
2019-05-25T17:40:40.437Z,3.02
2019-05-25T17:43:08.886Z,2.02
2019-05-25T17:45:37.348Z,2.90
2019-05-25T17:48:09.807Z,2.47
2019-05-25T17:50:41.075Z,2.52
2019-05-25T17:53:13.450Z,3.00
2019-05-25T17:58:32.932Z,3.02
2019-05-25T18:01:16.799Z,2.80
2019-05-25T18:04:05.379Z,3.12
2019-05-25T18:06:23.786Z,2.58
2019-05-25T18:08:52.228Z,2.77
2019-05-25T18:11:22.612Z,3.45
2019-05-25T18:13:50.997Z,7.30
2019-05-25T18:16:23.279Z,7.90
2019-05-25T18:18:51.699Z,2.95
2019-05-25T18:21:22.107Z,2.47
2019-05-25T18:23:50.520Z,2.60
2019-05-25T18:26:21.715Z,3.08
2019-05-25T18:29:23.647Z,1.87
2019-05-25T18:32:04.377Z,1.62
2019-05-25T18:34:33.201Z,1.70
2019-05-25T18:37:03.293Z,2.15
2019-05-25T18:39:36.875Z,1.40
2019-05-25T18:42:10.261Z,1.52
2019-05-25T18:44:38.681Z,1.65
2019-05-25T18:47:10.702Z,1.62
2019-05-25T18:49:48.328Z,1.80
2019-05-25T18:52:22.134Z,2.42
2019-05-25T18:54:54.762Z,4.05
2019-05-25T18:57:25.960Z,2.72
2019-05-25T18:59:57.979Z,2.30
2019-05-25T19:02:30.160Z,2.62
2019-05-25T19:05:01.185Z,2.20
2019-05-25T19:07:30.808Z,2.58
2019-05-25T19:09:59.329Z,2.15
2019-05-25T19:12:27.862Z,2.40
2019-05-25T19:14:58.353Z,2.83
2019-05-25T19:17:29.325Z,2.10
2019-05-25T19:20:01.697Z,2.08
2019-05-25T19:22:40.684Z,2.67
2019-05-25T19:25:12.596Z,2.67
2019-05-25T19:27:43.904Z,2.30
2019-05-25T19:30:15.730Z,2.37
2019-05-25T19:32:48.237Z,1.70
2019-05-25T19:35:16.677Z,1.75
2019-05-25T19:37:48.109Z,1.82
2019-05-25T19:40:17.161Z,1.57
2019-05-25T19:42:50.227Z,3.05
2019-05-25T19:45:20.206Z,1.85
2019-05-25T19:47:49.556Z,2.55
2019-05-25T19:50:18.186Z,1.85
2019-05-25T19:52:49.044Z,1.95
2019-05-25T19:55:17.603Z,2.65
2019-05-25T19:57:47.044Z,2.17
2019-05-25T20:00:19.872Z,2.30
2019-05-25T20:02:48.297Z,2.12
2019-05-25T20:05:17.639Z,2.42
2019-05-25T20:07:46.180Z,2.00
2019-05-25T20:10:15.322Z,2.40
2019-05-25T20:12:47.097Z,2.02
2019-05-25T20:15:16.684Z,2.05
2019-05-25T20:17:45.056Z,2.70
2019-05-25T20:20:14.196Z,1.98
2019-05-25T20:22:45.094Z,1.70
2019-05-25T20:25:13.718Z,1.70
2019-05-25T20:27:48.749Z,2.05
2019-05-25T20:30:16.344Z,1.83
2019-05-25T20:32:47.304Z,1.57
2019-05-25T20:35:31.757Z,2.22
2019-05-25T20:37:46.147Z,1.90
2019-05-25T20:40:14.770Z,2.00
2019-05-25T20:42:43.153Z,2.27
2019-05-25T20:45:14.219Z,2.17
2019-05-25T20:47:45.092Z,2.45
2019-05-25T20:50:16.694Z,2.50
2019-05-25T20:52:45.098Z,2.43
2019-05-25T20:55:13.682Z,2.83
2019-05-25T20:57:42.090Z,2.95
2019-05-25T21:00:11.058Z,2.77
2019-05-25T21:02:39.467Z,2.85
2019-05-25T21:05:11.721Z,3.02
2019-05-25T21:07:40.142Z,3.00
2019-05-25T21:10:09.937Z,2.25
2019-05-25T21:12:38.367Z,2.20
2019-05-25T21:15:10.647Z,2.40
2019-05-25T21:17:39.112Z,3.47
2019-05-25T21:20:07.958Z,2.67
2019-05-25T21:22:40.133Z,2.58
2019-05-25T21:25:12.494Z,3.95
2019-05-25T21:27:43.284Z,3.85
2019-05-25T21:30:15.476Z,2.40
2019-05-25T21:32:44.048Z,2.92
2019-05-25T21:35:12.689Z,2.50
2019-05-25T21:37:42.033Z,2.80
2019-05-25T21:40:11.623Z,2.53
2019-05-25T21:42:40.516Z,2.60
2019-05-25T21:45:10.385Z,2.50
2019-05-25T21:47:38.790Z,3.20
2019-05-25T21:50:07.765Z,3.02
2019-05-25T21:52:36.565Z,2.72
2019-05-25T21:55:06.778Z,3.00
2019-05-25T21:57:35.164Z,3.10
2019-05-25T22:00:10.929Z,2.83
2019-05-25T22:02:39.373Z,3.17
2019-05-25T22:05:09.109Z,2.90
2019-05-25T22:07:38.514Z,2.87
2019-05-25T22:10:07.151Z,2.60
2019-05-25T22:12:36.517Z,2.98
2019-05-25T22:15:08.623Z,2.70
2019-05-25T22:17:39.661Z,2.20
2019-05-25T22:20:10.784Z,3.30
2019-05-25T22:22:39.227Z,2.62
2019-05-25T22:25:09.148Z,2.62
2019-05-25T22:27:40.142Z,2.92
2019-05-25T22:30:12.292Z,2.73
2019-05-25T22:32:42.084Z,2.87
2019-05-25T22:35:16.815Z,3.00
2019-05-25T22:37:46.225Z,3.22
2019-05-25T22:40:20.179Z,2.98
2019-05-25T22:42:48.747Z,3.20
2019-05-25T22:45:17.235Z,3.83
2019-05-25T22:47:45.635Z,2.80
2019-05-25T22:50:14.490Z,4.12
2019-05-25T22:52:45.564Z,3.35
2019-05-25T22:55:31.592Z,2.90
2019-05-25T22:57:53.287Z,3.42
2019-05-25T23:00:21.873Z,3.30
2019-05-25T23:02:54.070Z,3.47
2019-05-25T23:05:22.480Z,3.47
2019-05-25T23:07:50.885Z,3.33
2019-05-25T23:10:19.445Z,3.42
2019-05-25T23:12:47.837Z,3.62
2019-05-25T23:15:16.420Z,3.60
2019-05-25T23:17:44.885Z,3.12
2019-05-25T23:20:14.009Z,3.55
2019-05-25T23:22:42.438Z,3.55
2019-05-25T23:25:11.065Z,4.03
2019-05-25T23:27:39.493Z,3.70
2019-05-25T23:30:12.720Z,3.27
2019-05-25T23:32:41.149Z,3.52
2019-05-25T23:35:09.627Z,3.40
2019-05-25T23:37:38.043Z,3.55
2019-05-25T23:40:10.198Z,4.00
2019-05-25T23:42:41.318Z,4.33
2019-05-25T23:45:11.445Z,3.50
2019-05-25T23:47:40.978Z,3.65
2019-05-25T23:50:13.413Z,3.70
2019-05-25T23:55:09.886Z,3.72
2019-05-25T23:57:39.475Z,4.20
